Time;durP1;ratioP1;P1;durP2;ratioP2;P2;SDS_P1;SDS_P2;PMS_P1;PMS_P2;Temp;Humidity;BMP_temperature;BMP_pressure;BME280_temperature;BME280_humidity;BME280_pressure;Samples;Min_cycle;Max_cycle;Signal;HPM_P1;HPM_P2
2021/07/02 02:47:52;;;;;;;4.40;3.42;;;15.30;99.90;;;;;;4156597;23;94565;-80
2021/07/02 02:50:18;;;;;;;4.18;3.78;;;15.30;99.90;;;;;;4905749;28;92018;-82
2021/07/02 02:52:44;;;;;;;3.55;3.25;;;15.30;99.90;;;;;;4896488;28;91936;-82
2021/07/02 02:55:10;;;;;;;4.78;3.60;;;15.40;99.90;;;;;;4903091;28;91071;-83
2021/07/02 02:57:35;;;;;;;5.28;3.60;;;15.40;99.90;;;;;;4907256;28;92600;-83
2021/07/02 03:00:01;;;;;;;4.00;3.40;;;15.40;99.90;;;;;;4895926;28;91968;-82
2021/07/02 03:02:27;;;;;;;2.97;2.78;;;15.40;99.90;;;;;;4894974;28;92879;-83
2021/07/02 03:04:54;;;;;;;4.57;3.80;;;15.40;99.90;;;;;;4893877;28;92265;-84
2021/07/02 03:07:19;;;;;;;4.55;3.95;;;15.40;99.90;;;;;;4891480;28;92123;-83
2021/07/02 03:09:45;;;;;;;5.63;3.75;;;15.30;99.90;;;;;;4891569;28;92725;-83
2021/07/02 03:12:12;;;;;;;6.10;3.88;;;15.40;99.90;;;;;;4891901;28;91990;-82
2021/07/02 03:14:38;;;;;;;4.90;3.80;;;15.40;99.90;;;;;;4890800;28;92074;-83
2021/07/02 03:17:04;;;;;;;4.78;3.60;;;15.50;99.90;;;;;;4892826;28;92835;-82
2021/07/02 03:19:29;;;;;;;4.97;3.70;;;15.50;99.90;;;;;;4891738;28;91935;-83
2021/07/02 03:21:55;;;;;;;6.47;3.88;;;15.50;99.90;;;;;;4890474;28;92002;-82
2021/07/02 03:24:21;;;;;;;4.70;4.00;;;15.40;99.90;;;;;;4891236;28;91854;-84
2021/07/02 03:26:46;;;;;;;5.22;4.03;;;15.40;99.90;;;;;;4890354;28;93574;-84
2021/07/02 03:29:12;;;;;;;4.38;3.70;;;15.30;99.90;;;;;;4893273;28;92829;-83
2021/07/02 03:31:38;;;;;;;5.93;3.83;;;15.30;99.90;;;;;;4914761;28;92837;-85
2021/07/02 03:34:04;;;;;;;4.40;3.30;;;15.30;99.90;;;;;;4896734;28;92153;-83
2021/07/02 03:36:31;;;;;;;4.03;3.33;;;15.20;99.90;;;;;;4907655;28;91791;-84
2021/07/02 03:38:57;;;;;;;6.40;4.15;;;15.30;99.90;;;;;;4893704;28;91887;-83
2021/07/02 03:41:22;;;;;;;6.03;4.20;;;15.30;99.90;;;;;;4894219;28;92147;-83
2021/07/02 03:43:49;;;;;;;7.53;4.30;;;15.30;99.90;;;;;;4894427;28;91507;-82
2021/07/02 03:46:15;;;;;;;4.07;3.67;;;15.40;99.90;;;;;;4895229;28;92256;-82
2021/07/02 03:48:40;;;;;;;4.38;3.85;;;15.40;99.90;;;;;;4889309;28;91676;-83
2021/07/02 03:51:06;;;;;;;5.72;4.45;;;15.40;99.90;;;;;;4895404;28;93250;-82
2021/07/02 03:53:32;;;;;;;4.43;3.97;;;15.40;99.90;;;;;;4888352;28;91434;-83
2021/07/02 03:55:57;;;;;;;6.70;3.97;;;15.30;99.90;;;;;;4896401;28;92173;-84
2021/07/02 03:58:23;;;;;;;4.55;3.83;;;15.40;99.90;;;;;;4891504;28;91873;-83
2021/07/02 04:00:49;;;;;;;5.13;3.30;;;15.40;99.90;;;;;;4893453;28;91316;-82
2021/07/02 04:03:15;;;;;;;12.15;7.20;;;15.40;99.90;;;;;;4873534;28;93428;-83
2021/07/02 04:05:44;;;;;;;4.97;4.47;;;15.30;99.90;;;;;;4890664;28;92727;-83
2021/07/02 04:08:12;;;;;;;6.18;4.35;;;15.30;99.90;;;;;;4890267;28;91996;-84
2021/07/02 04:10:38;;;;;;;4.78;4.35;;;15.30;99.90;;;;;;4890400;28;92053;-84
2021/07/02 04:13:04;;;;;;;4.38;3.83;;;15.40;99.90;;;;;;4892823;28;92068;-83
2021/07/02 04:15:30;;;;;;;4.05;3.67;;;15.40;99.90;;;;;;4890533;28;93446;-83
2021/07/02 04:17:56;;;;;;;4.60;3.30;;;15.40;99.90;;;;;;4887557;28;93881;-81
2021/07/02 04:20:22;;;;;;;3.97;3.67;;;15.40;99.90;;;;;;4894432;28;92105;-82
2021/07/02 04:22:48;;;;;;;4.07;3.53;;;15.40;99.90;;;;;;4897814;28;92091;-82
2021/07/02 04:25:13;;;;;;;4.35;3.67;;;15.40;99.90;;;;;;4890689;28;93018;-84
2021/07/02 04:27:40;;;;;;;4.32;3.70;;;15.40;99.90;;;;;;4891921;28;92388;-82
2021/07/02 04:30:07;;;;;;;3.67;3.05;;;15.40;99.90;;;;;;4897523;28;91886;-82
2021/07/02 04:32:35;;;;;;;4.55;3.80;;;15.50;99.90;;;;;;4897773;28;91288;-83
2021/07/02 04:35:01;;;;;;;5.25;3.53;;;15.60;99.90;;;;;;4891935;28;92145;-83
2021/07/02 04:37:26;;;;;;;4.00;3.53;;;15.70;99.90;;;;;;4890920;28;92124;-83
2021/07/02 04:39:52;;;;;;;3.90;3.38;;;15.70;99.90;;;;;;4888922;28;93034;-82
2021/07/02 04:42:18;;;;;;;4.60;3.70;;;15.80;99.90;;;;;;4889874;28;92212;-81
2021/07/02 04:44:44;;;;;;;4.05;3.50;;;15.80;99.90;;;;;;4888668;28;92372;-83
2021/07/02 04:47:09;;;;;;;4.28;3.88;;;15.90;99.90;;;;;;4886111;28;93552;-83
2021/07/02 04:49:35;;;;;;;4.38;3.28;;;16.00;99.90;;;;;;4884927;28;92111;-84
2021/07/02 04:52:01;;;;;;;6.50;3.55;;;16.10;99.90;;;;;;4891930;28;92002;-83
2021/07/02 04:54:27;;;;;;;4.03;3.50;;;16.20;99.90;;;;;;4888501;28;92006;-81
2021/07/02 04:56:53;;;;;;;4.30;3.35;;;16.40;99.90;;;;;;4886624;28;91929;-81
2021/07/02 04:59:20;;;;;;;3.50;3.17;;;16.40;99.90;;;;;;4887804;28;92161;-82
2021/07/02 05:01:47;;;;;;;6.57;4.00;;;16.50;99.90;;;;;;4887520;28;91971;-83
2021/07/02 05:04:13;;;;;;;6.70;3.60;;;16.60;99.90;;;;;;4885135;28;93473;-82
2021/07/02 05:06:38;;;;;;;5.68;3.65;;;16.60;99.90;;;;;;4888543;28;92110;-83
2021/07/02 05:09:06;;;;;;;6.93;3.00;;;16.60;99.90;;;;;;4888064;28;91715;-81
2021/07/02 05:11:35;;;;;;;4.07;3.28;;;16.70;99.90;;;;;;4890634;28;91577;-82
2021/07/02 05:14:04;;;;;;;4.22;3.83;;;16.70;99.90;;;;;;4887689;28;92625;-82
2021/07/02 05:16:30;;;;;;;5.07;3.58;;;16.80;99.90;;;;;;4878886;28;92068;-83
2021/07/02 05:18:56;;;;;;;5.85;3.63;;;16.90;99.90;;;;;;4889441;28;91846;-83
2021/07/02 05:21:23;;;;;;;4.60;3.25;;;17.00;99.90;;;;;;4892548;28;90938;-82
2021/07/02 05:23:49;;;;;;;3.88;3.47;;;17.10;99.90;;;;;;4892582;28;91982;-83
2021/07/02 05:26:15;;;;;;;4.03;3.60;;;17.10;99.90;;;;;;4890537;28;92739;-83
2021/07/02 05:28:41;;;;;;;3.67;3.25;;;17.10;99.90;;;;;;4890241;28;93010;-83
2021/07/02 05:31:07;;;;;;;6.95;4.20;;;17.10;99.90;;;;;;4899696;28;91609;-80
2021/07/02 05:33:33;;;;;;;4.30;3.70;;;17.20;99.90;;;;;;4891968;28;92224;-81
2021/07/02 05:35:59;;;;;;;4.40;3.63;;;17.30;99.90;;;;;;4892536;28;92674;-82
2021/07/02 05:38:25;;;;;;;6.25;4.43;;;17.30;99.90;;;;;;4892838;28;91911;-81
2021/07/02 05:40:54;;;;;;;4.53;4.05;;;17.20;99.90;;;;;;4892525;28;91991;-82
2021/07/02 05:43:24;;;;;;;5.72;3.83;;;17.30;99.90;;;;;;4892383;28;92304;-82
2021/07/02 05:45:50;;;;;;;4.43;3.30;;;17.60;99.90;;;;;;4886719;28;91998;-81
2021/07/02 05:48:21;;;;;;;5.45;4.40;;;17.80;99.90;;;;;;4890662;28;91935;-80
2021/07/02 05:50:47;;;;;;;5.18;3.78;;;18.00;99.90;;;;;;4887095;28;92033;-81
2021/07/02 05:53:15;;;;;;;5.75;4.22;;;18.10;99.90;;;;;;4891033;28;93061;-81
2021/07/02 05:55:41;;;;;;;8.55;5.22;;;18.20;99.90;;;;;;4894010;28;92165;-82
2021/07/02 05:58:07;;;;;;;5.68;4.80;;;18.30;99.90;;;;;;4894041;28;91907;-82
2021/07/02 06:00:33;;;;;;;6.60;5.13;;;18.40;99.90;;;;;;4891135;28;91705;-83
2021/07/02 06:02:58;;;;;;;7.22;5.80;;;18.50;99.90;;;;;;4889127;28;92672;-84
2021/07/02 06:05:24;;;;;;;12.27;6.97;;;18.50;99.90;;;;;;4907004;28;92395;-82
2021/07/02 06:07:55;;;;;;;8.82;6.40;;;18.50;99.90;;;;;;4908275;28;91275;-82
2021/07/02 06:10:24;;;;;;;7.63;5.63;;;18.60;99.90;;;;;;4914278;28;90420;-84
2021/07/02 06:12:50;;;;;;;8.30;5.80;;;18.80;99.90;;;;;;4900970;28;91611;-85
2021/07/02 06:15:18;;;;;;;9.05;6.00;;;19.00;99.90;;;;;;4911482;28;95106;-81
2021/07/02 06:17:46;;;;;;;7.70;5.50;;;19.10;99.90;;;;;;4903723;28;92686;-84
2021/07/02 06:20:14;;;;;;;9.73;6.28;;;19.20;99.90;;;;;;4900186;28;91763;-83
2021/07/02 06:22:40;;;;;;;10.05;6.78;;;19.30;99.90;;;;;;4893173;28;93390;-84
2021/07/02 06:25:08;;;;;;;9.15;6.45;;;19.20;99.90;;;;;;4897163;28;92261;-83
2021/07/02 06:27:34;;;;;;;10.43;6.43;;;19.30;99.90;;;;;;4899029;28;92008;-84
2021/07/02 06:30:00;;;;;;;7.47;6.18;;;19.50;99.90;;;;;;4897908;28;91499;-83
2021/07/02 06:32:26;;;;;;;8.07;5.82;;;19.60;99.90;;;;;;4895055;28;93548;-84
2021/07/02 06:34:51;;;;;;;7.93;5.80;;;19.70;99.90;;;;;;4897016;28;91977;-84
2021/07/02 06:37:17;;;;;;;6.90;5.55;;;19.90;99.90;;;;;;4896763;28;91651;-84
2021/07/02 06:39:43;;;;;;;8.23;5.90;;;20.10;99.90;;;;;;4899916;28;91594;-83
2021/07/02 06:42:09;;;;;;;8.27;5.97;;;20.40;99.90;;;;;;4898034;28;93184;-84
2021/07/02 06:44:35;;;;;;;7.97;5.63;;;20.60;99.90;;;;;;4888726;28;97527;-84
2021/07/02 06:47:01;;;;;;;6.53;5.70;;;20.80;99.90;;;;;;4891402;28;91701;-83
2021/07/02 06:49:26;;;;;;;7.45;5.90;;;20.90;99.90;;;;;;4889946;28;91970;-83
2021/07/02 06:51:52;;;;;;;7.10;5.70;;;21.10;99.90;;;;;;4893832;28;92377;-85
2021/07/02 06:54:18;;;;;;;8.07;5.88;;;21.10;99.90;;;;;;4894829;28;91832;-84
2021/07/02 06:57:07;;;;;;;7.97;6.25;;;21.10;99.90;;;;;;4897010;28;91845;-84
2021/07/02 06:59:37;;;;;;;7.72;5.57;;;21.10;99.90;;;;;;4896451;28;90935;-80
2021/07/02 07:02:03;;;;;;;7.97;6.38;;;21.00;99.90;;;;;;4891412;28;92024;-80
2021/07/02 07:04:34;;;;;;;8.75;6.57;;;20.90;99.90;;;;;;4891981;28;91883;-84
2021/07/02 07:07:00;;;;;;;7.40;6.18;;;21.00;99.90;;;;;;4896994;28;92377;-79
2021/07/02 07:09:26;;;;;;;9.68;6.95;;;21.10;99.90;;;;;;4905128;28;91482;-84
2021/07/02 07:11:52;;;;;;;7.45;5.88;;;21.40;99.90;;;;;;4904489;28;92029;-83
2021/07/02 07:14:17;;;;;;;10.90;7.00;;;21.50;99.90;;;;;;4901613;28;91245;-84
2021/07/02 07:16:43;;;;;;;8.57;6.20;;;21.40;99.80;;;;;;4894543;28;92009;-84
2021/07/02 07:19:09;;;;;;;7.63;6.38;;;21.30;99.50;;;;;;4895642;28;92043;-84
2021/07/02 07:21:35;;;;;;;8.95;6.88;;;21.20;99.50;;;;;;4899776;28;91522;-83
2021/07/02 07:24:01;;;;;;;10.60;6.55;;;21.10;99.50;;;;;;4899585;28;92009;-84
2021/07/02 07:26:27;;;;;;;7.18;6.43;;;20.90;99.70;;;;;;4898826;28;91679;-83
2021/07/02 07:28:52;;;;;;;7.72;6.03;;;20.90;99.90;;;;;;4896843;28;91891;-83
2021/07/02 07:31:18;;;;;;;7.30;6.10;;;20.90;99.90;;;;;;4900591;28;94077;-83
2021/07/02 07:33:46;;;;;;;7.13;6.03;;;20.90;99.90;;;;;;4893248;28;93768;-83
2021/07/02 07:36:15;;;;;;;9.02;6.38;;;21.10;99.90;;;;;;4897458;28;91605;-85
2021/07/02 07:38:44;;;;;;;6.32;5.65;;;21.10;99.50;;;;;;4894266;28;91189;-84
2021/07/02 07:41:10;;;;;;;9.35;7.07;;;21.20;99.70;;;;;;4894313;28;92409;-83
2021/07/02 07:43:36;;;;;;;9.25;7.32;;;21.30;98.80;;;;;;4893611;28;91855;-83
2021/07/02 07:46:05;;;;;;;8.63;6.75;;;21.30;97.40;;;;;;4896944;28;92083;-84
2021/07/02 07:48:31;;;;;;;7.22;5.85;;;21.40;97.60;;;;;;4893374;28;91253;-83
2021/07/02 07:51:13;;;;;;;7.60;6.10;;;21.60;97.50;;;;;;4897023;28;92185;-83
2021/07/02 07:53:39;;;;;;;9.25;6.30;;;21.90;97.80;;;;;;4892334;28;91977;-83
2021/07/02 07:56:05;;;;;;;6.88;5.85;;;22.20;97.10;;;;;;4894076;28;93487;-84
2021/07/02 07:58:31;;;;;;;7.82;6.07;;;22.60;96.70;;;;;;4900021;28;91770;-84
2021/07/02 08:00:57;;;;;;;8.27;7.55;;;;;;;;;;4897018;28;93063;-83
2021/07/02 08:03:22;;;;;;;10.30;6.75;;;23.00;92.90;;;;;;4891496;28;91936;-84
2021/07/02 08:05:48;;;;;;;7.30;5.93;;;23.30;93.20;;;;;;4900127;28;91963;-84
2021/07/02 08:08:16;;;;;;;6.43;5.43;;;23.60;93.00;;;;;;4893654;28;92134;-83
2021/07/02 08:10:42;;;;;;;8.20;6.15;;;23.90;91.90;;;;;;4893294;28;92686;-83
2021/07/02 08:13:07;;;;;;;8.65;6.50;;;24.10;90.40;;;;;;4903557;28;92206;-83
2021/07/02 08:15:33;;;;;;;7.20;5.25;;;24.40;90.40;;;;;;4905089;28;92607;-82
2021/07/02 08:17:59;;;;;;;6.75;5.70;;;24.70;90.00;;;;;;4912096;28;91900;-84
2021/07/02 08:20:25;;;;;;;7.20;5.90;;;24.90;88.50;;;;;;4914897;28;92610;-83
2021/07/02 08:22:51;;;;;;;8.70;5.60;;;24.80;84.10;;;;;;4901353;28;92787;-85
2021/07/02 08:25:17;;;;;;;6.88;5.80;;;24.80;86.50;;;;;;4900804;28;92237;-83
2021/07/02 08:30:27;;;;;;;7.25;5.80;;;25.30;84.30;;;;;;4894467;28;91851;-83
2021/07/02 08:32:53;;;;;;;9.05;5.68;;;25.40;83.30;;;;;;4893020;28;92890;-84
2021/07/02 08:35:22;;;;;;;7.35;5.70;;;25.20;82.00;;;;;;4896206;28;91655;-83
2021/07/02 08:37:52;;;;;;;8.15;5.45;;;25.20;80.90;;;;;;4898203;28;91270;-83
2021/07/02 08:40:22;;;;;;;7.80;5.90;;;25.30;79.70;;;;;;4894268;28;91747;-81
2021/07/02 08:42:48;;;;;;;6.75;5.70;;;25.40;80.20;;;;;;4898514;28;92371;-82
2021/07/02 08:45:14;;;;;;;6.68;5.32;;;25.30;76.80;;;;;;4892323;28;94573;-80
2021/07/02 08:47:41;;;;;;;5.72;5.13;;;25.30;77.80;;;;;;4892953;28;91927;-82
2021/07/02 08:50:08;;;;;;;7.32;5.13;;;25.20;78.30;;;;;;4892553;28;92010;-82
2021/07/02 08:52:36;;;;;;;8.82;5.40;;;25.20;78.50;;;;;;4899475;28;91954;-81
2021/07/02 08:55:05;;;;;;;5.60;4.78;;;25.30;77.00;;;;;;4892276;28;91983;-82
2021/07/02 08:57:31;;;;;;;6.38;5.05;;;25.10;75.80;;;;;;4891960;28;91815;-82
2021/07/02 08:59:59;;;;;;;5.50;4.85;;;25.10;77.10;;;;;;4894484;28;92734;-81
2021/07/02 09:02:31;;;;;;;12.02;7.05;;;25.40;75.30;;;;;;4894151;28;92122;-81
2021/07/02 09:04:57;;;;;;;5.72;5.15;;;25.50;75.30;;;;;;4902727;28;93020;-82
2021/07/02 09:07:24;;;;;;;7.68;5.40;;;25.90;74.70;;;;;;4892628;28;92092;-82
2021/07/02 09:09:59;;;;;;;6.80;6.10;;;26.10;73.20;;;;;;4891846;28;94098;-84
2021/07/02 09:12:30;;;;;;;6.68;5.28;;;26.40;71.00;;;;;;4892406;28;93464;-83
2021/07/02 09:15:13;;;;;;;6.63;5.68;;;26.60;71.40;;;;;;4892537;28;91988;-83
2021/07/02 09:17:51;;;;;;;5.85;5.25;;;26.80;68.30;;;;;;4891131;28;92009;-83
2021/07/02 09:20:23;;;;;;;5.28;4.78;;;26.90;68.50;;;;;;4892285;28;91980;-82
2021/07/02 09:22:52;;;;;;;6.57;5.97;;;27.00;68.50;;;;;;4892846;28;94620;-80
2021/07/02 09:25:28;;;;;;;7.37;6.20;;;27.20;66.10;;;;;;4898349;28;92055;-84
2021/07/02 09:28:09;;;;;;;6.32;5.28;;;27.00;66.20;;;;;;4892533;28;91326;-84
2021/07/02 09:30:37;;;;;;;6.45;5.72;;;27.70;66.00;;;;;;4895448;28;96716;-83
2021/07/02 09:33:04;;;;;;;9.27;5.70;;;28.10;62.90;;;;;;4891112;28;91953;-84
2021/07/02 09:35:45;;;;;;;5.85;5.20;;;29.00;64.30;;;;;;4891739;28;92973;-84
2021/07/02 09:38:12;;;;;;;6.18;5.57;;;30.50;61.20;;;;;;4892516;28;91896;-85
2021/07/02 09:40:38;;;;;;;5.80;5.22;;;31.70;57.30;;;;;;4903451;28;91984;-84
2021/07/02 09:43:12;;;;;;;6.80;6.10;;;33.00;54.90;;;;;;4903962;28;91563;-83
2021/07/02 09:45:44;;;;;;;5.80;5.30;;;34.30;50.00;;;;;;4892480;28;91969;-84
2021/07/02 09:48:12;;;;;;;7.43;6.82;;;36.60;46.70;;;;;;4893351;28;92260;-85
2021/07/02 09:50:59;;;;;;;9.07;8.27;;;36.50;42.70;;;;;;4900999;28;92222;-85
2021/07/02 09:53:30;;;;;;;5.80;5.15;;;36.50;41.90;;;;;;4877132;28;92748;-85
2021/07/02 09:55:58;;;;;;;6.45;5.78;;;37.00;44.30;;;;;;4888990;28;91961;-84
2021/07/02 09:58:26;;;;;;;6.25;5.75;;;38.10;42.30;;;;;;4888492;28;91304;-84
2021/07/02 10:00:57;;;;;;;6.10;5.32;;;38.50;41.20;;;;;;4896493;28;92730;-81
2021/07/02 10:03:25;;;;;;;6.90;6.22;;;38.90;40.00;;;;;;4895294;28;94800;-82
2021/07/02 10:05:53;;;;;;;7.85;7.13;;;40.10;41.70;;;;;;4895002;28;91312;-80
2021/07/02 10:08:22;;;;;;;6.43;5.83;;;40.00;38.20;;;;;;4903247;28;91263;-83
2021/07/02 10:10:51;;;;;;;8.55;7.75;;;40.40;37.20;;;;;;4895314;28;92451;-82
2021/07/02 10:13:18;;;;;;;7.10;6.50;;;40.50;37.60;;;;;;4889865;28;92117;-82
2021/07/02 10:15:44;;;;;;;7.55;6.95;;;41.20;35.00;;;;;;4889243;28;91783;-83
2021/07/02 10:18:17;;;;;;;6.63;6.03;;;41.30;35.50;;;;;;4894131;28;91392;-83
2021/07/02 10:20:44;;;;;;;7.07;6.30;;;40.70;35.20;;;;;;4896128;28;93116;-82
2021/07/02 10:23:13;;;;;;;6.97;6.28;;;39.20;36.70;;;;;;4895352;28;93345;-82
2021/07/02 10:25:42;;;;;;;8.82;8.23;;;39.70;35.20;;;;;;4898839;28;92869;-82
2021/07/02 10:28:11;;;;;;;6.00;5.50;;;40.20;35.70;;;;;;4894954;28;93402;-83
2021/07/02 10:30:40;;;;;;;6.38;5.78;;;40.20;35.90;;;;;;4896496;28;92800;-83
2021/07/02 10:33:06;;;;;;;8.30;7.60;;;40.80;35.00;;;;;;4908770;28;92100;-83
2021/07/02 10:35:33;;;;;;;7.20;6.60;;;40.90;35.60;;;;;;4897418;28;91893;-84
2021/07/02 10:38:00;;;;;;;8.45;7.88;;;42.10;33.80;;;;;;4894978;28;91736;-83
2021/07/02 10:40:42;;;;;;;7.45;6.85;;;42.10;33.90;;;;;;4897738;28;92554;-82
2021/07/02 10:43:17;;;;;;;9.07;8.27;;;43.30;33.10;;;;;;4901150;28;92420;-81
2021/07/02 10:46:08;;;;;;;6.80;6.20;;;43.30;33.60;;;;;;4892777;28;91998;-82
2021/07/02 10:48:54;;;;;;;6.97;6.43;;;43.60;31.80;;;;;;4878431;28;91745;-82
2021/07/02 10:51:41;;;;;;;7.28;6.70;;;43.40;31.90;;;;;;4876303;28;93211;-84
2021/07/02 10:54:15;;;;;;;10.45;9.70;;;43.90;31.70;;;;;;4885364;28;92790;-83
2021/07/02 10:56:56;;;;;;;7.57;6.88;;;44.20;32.00;;;;;;4887169;28;92239;-85
2021/07/02 10:59:43;;;;;;;9.23;7.85;;;44.60;31.90;;;;;;4877356;28;91697;-82
2021/07/02 11:02:09;;;;;;;8.60;7.70;;;44.80;31.10;;;;;;4876956;28;92265;-83
2021/07/02 11:04:40;;;;;;;8.80;7.88;;;45.10;31.40;;;;;;4877096;29;91922;-80
2021/07/02 11:07:12;;;;;;;7.70;7.00;;;44.20;32.20;;;;;;4878268;29;91956;-82
2021/07/02 11:10:05;;;;;;;8.38;7.47;;;44.50;31.30;;;;;;4874214;29;90649;-85
2021/07/02 11:12:43;;;;;;;8.68;7.82;;;45.20;31.30;;;;;;4863526;29;93245;-82
2021/07/02 11:15:19;;;;;;;7.93;6.90;;;45.10;31.00;;;;;;4878975;28;91670;-83
2021/07/02 11:17:45;;;;;;;7.82;7.22;;;44.90;31.30;;;;;;4882828;28;92792;-83
2021/07/02 11:20:18;;;;;;;8.07;7.22;;;45.00;31.40;;;;;;4878748;28;94050;-81
2021/07/02 11:22:57;;;;;;;10.43;8.35;;;45.60;30.70;;;;;;4879793;28;91757;-80
2021/07/02 11:27:51;;;;;;;8.90;8.13;;;45.70;31.00;;;;;;4882620;29;91182;-81
2021/07/02 11:30:23;;;;;;;8.38;7.25;;;45.90;30.00;;;;;;4877313;28;91813;-83
2021/07/02 11:32:58;;;;;;;9.10;8.60;;;45.90;30.00;;;;;;4883814;28;92740;-80
2021/07/02 11:35:28;;;;;;;7.70;7.05;;;45.90;29.70;;;;;;4881420;28;91903;-80
2021/07/02 11:38:11;;;;;;;7.30;6.70;;;45.30;30.90;;;;;;4885181;29;91840;-82
2021/07/02 11:40:47;;;;;;;7.25;6.65;;;45.40;30.10;;;;;;4879849;29;92128;-81
2021/07/02 11:43:14;;;;;;;8.45;7.75;;;45.50;30.00;;;;;;4875425;28;93749;-84
2021/07/02 11:45:44;;;;;;;7.63;6.80;;;45.60;30.60;;;;;;4879869;28;92853;-82
2021/07/02 11:48:32;;;;;;;7.45;6.88;;;45.30;30.40;;;;;;4882574;28;91221;-84
2021/07/02 11:51:14;;;;;;;8.85;8.25;;;45.50;30.00;;;;;;4886073;28;91148;-85
2021/07/02 11:54:00;;;;;;;9.60;8.90;;;45.30;30.00;;;;;;4881510;28;93258;-84
2021/07/02 11:56:37;;;;;;;9.80;9.13;;;44.70;30.60;;;;;;4873571;28;91342;-82
2021/07/02 11:59:11;;;;;;;7.78;7.18;;;44.80;30.90;;;;;;4879098;28;92093;-85
2021/07/02 12:01:39;;;;;;;7.03;6.45;;;45.10;29.70;;;;;;4869558;28;90991;-83
2021/07/02 12:04:10;;;;;;;9.98;9.25;;;45.00;30.40;;;;;;4877081;28;92760;-83
2021/07/02 12:06:43;;;;;;;9.57;8.77;;;45.00;30.60;;;;;;4876153;29;91420;-84
2021/07/02 12:09:20;;;;;;;7.15;6.65;;;45.10;30.00;;;;;;4874503;28;94671;-83
2021/07/02 12:11:54;;;;;;;7.75;7.10;;;45.40;30.00;;;;;;4871559;29;91603;-83
2021/07/02 12:14:26;;;;;;;7.70;7.00;;;45.40;30.10;;;;;;4873875;29;91616;-83
2021/07/02 12:16:52;;;;;;;10.30;9.50;;;45.50;30.20;;;;;;4875930;28;92038;-84
2021/07/02 12:19:21;;;;;;;10.02;9.23;;;45.60;29.50;;;;;;4880643;28;91904;-83
2021/07/02 12:21:52;;;;;;;10.30;9.27;;;45.60;29.80;;;;;;4873454;28;91725;-83
2021/07/02 12:24:21;;;;;;;9.63;8.95;;;44.90;30.00;;;;;;4864819;29;92777;-83
2021/07/02 12:26:58;;;;;;;7.30;6.60;;;44.90;30.60;;;;;;4870960;28;91338;-83
2021/07/02 12:29:28;;;;;;;9.85;9.15;;;44.30;30.00;;;;;;4873331;28;91529;-82
2021/07/02 12:32:01;;;;;;;7.03;6.43;;;44.30;29.80;;;;;;4867442;29;91945;-82
2021/07/02 12:34:38;;;;;;;6.85;6.32;;;44.20;30.60;;;;;;4868954;28;93622;-83
2021/07/02 12:37:25;;;;;;;9.32;8.60;;;43.80;30.00;;;;;;4874224;28;93060;-83
2021/07/02 12:39:56;;;;;;;6.70;6.20;;;43.90;30.10;;;;;;4875149;28;92756;-83
2021/07/02 12:42:33;;;;;;;6.80;6.30;;;44.10;30.60;;;;;;4869969;29;91621;-84
2021/07/02 12:45:02;;;;;;;9.30;8.60;;;43.70;30.30;;;;;;4873435;28;92406;-83
2021/07/02 12:47:33;;;;;;;7.25;6.53;;;43.70;30.40;;;;;;4875348;28;91965;-83
2021/07/02 12:50:03;;;;;;;7.03;6.45;;;43.90;29.80;;;;;;4873977;28;92145;-83
2021/07/02 12:54:57;;;;;;;6.90;6.35;;;43.30;30.40;;;;;;4875075;28;91739;-83
2021/07/02 12:57:25;;;;;;;8.77;8.07;;;42.90;30.20;;;;;;4879136;28;92903;-83
2021/07/02 12:59:52;;;;;;;7.03;6.43;;;43.00;30.60;;;;;;4874462;28;92999;-82
2021/07/02 13:02:45;;;;;;;6.45;5.95;;;42.40;30.30;;;;;;4873653;28;92047;-84
2021/07/02 13:05:20;;;;;;;8.73;8.13;;;42.20;31.10;;;;;;4868377;28;92923;-83
2021/07/02 13:07:46;;;;;;;8.35;7.75;;;42.30;30.10;;;;;;4862250;29;92025;-83
2021/07/02 13:10:13;;;;;;;6.45;5.95;;;41.90;31.00;;;;;;4873243;28;92121;-83
2021/07/02 13:12:38;;;;;;;8.57;7.97;;;41.00;31.10;;;;;;4873736;28;92086;-83
2021/07/02 13:15:13;;;;;;;8.10;7.53;;;41.00;31.50;;;;;;4872418;29;92190;-84
2021/07/02 13:17:46;;;;;;;7.10;5.65;;;40.80;30.10;;;;;;4873385;29;91380;-84
2021/07/02 13:20:15;;;;;;;8.45;7.85;;;40.60;31.20;;;;;;4874113;29;91987;-82
2021/07/02 13:23:03;;;;;;;8.27;7.68;;;40.40;31.80;;;;;;4874949;28;91927;-83
2021/07/02 13:25:30;;;;;;;5.78;5.28;;;40.20;31.90;;;;;;4876583;28;92967;-83
2021/07/02 13:27:57;;;;;;;6.10;5.50;;;39.80;32.00;;;;;;4874636;29;93282;-83
2021/07/02 13:30:32;;;;;;;7.95;7.35;;;39.90;32.00;;;;;;4874353;28;91917;-83
2021/07/02 13:33:12;;;;;;;7.85;7.28;;;39.60;31.50;;;;;;4878731;28;91438;-83
2021/07/02 13:35:39;;;;;;;8.25;7.65;;;38.90;32.40;;;;;;4878933;28;91932;-82
2021/07/02 13:38:09;;;;;;;7.68;7.18;;;38.70;31.70;;;;;;4874836;29;93492;-82
2021/07/02 13:40:36;;;;;;;5.78;5.38;;;38.50;33.20;;;;;;4878323;28;91597;-83
2021/07/02 13:43:04;;;;;;;6.20;5.70;;;38.20;32.90;;;;;;4875978;29;91334;-83
2021/07/02 13:45:30;;;;;;;6.10;5.53;;;38.00;32.70;;;;;;4873030;28;91933;-83
2021/07/02 13:48:09;;;;;;;5.80;5.30;;;37.60;32.60;;;;;;4876786;28;92099;-83
2021/07/02 13:50:42;;;;;;;8.57;4.88;;;37.70;33.50;;;;;;4876893;29;92890;-83
2021/07/02 13:53:20;;;;;;;5.80;5.15;;;37.50;34.00;;;;;;4878505;28;92137;-83
2021/07/02 13:55:47;;;;;;;5.78;5.32;;;37.20;33.50;;;;;;4878061;28;92693;-83
2021/07/02 13:58:13;;;;;;;5.57;5.13;;;37.00;34.20;;;;;;4880149;28;92014;-83
2021/07/02 14:00:40;;;;;;;7.38;6.78;;;36.80;34.40;;;;;;4876048;29;92008;-83
2021/07/02 14:03:06;;;;;;;7.20;6.70;;;36.80;33.90;;;;;;4877900;28;92078;-83
2021/07/02 14:05:32;;;;;;;7.03;6.43;;;36.60;33.50;;;;;;4877476;28;91888;-83
2021/07/02 14:07:59;;;;;;;5.47;5.07;;;35.80;33.60;;;;;;4879031;29;91170;-82
2021/07/02 14:10:25;;;;;;;6.88;6.38;;;35.60;34.30;;;;;;4873914;28;92101;-83
2021/07/02 14:12:50;;;;;;;7.22;6.53;;;34.80;34.10;;;;;;4875376;28;91731;-84
2021/07/02 14:15:16;;;;;;;8.38;6.47;;;34.70;34.70;;;;;;4873415;28;93470;-83
2021/07/02 14:17:42;;;;;;;6.75;6.25;;;34.60;34.00;;;;;;4873729;28;93376;-82
2021/07/02 14:20:08;;;;;;;6.07;5.13;;;34.40;34.50;;;;;;4878098;28;91435;-84
2021/07/02 14:22:35;;;;;;;6.78;6.28;;;33.80;35.00;;;;;;4878404;29;91935;-82
2021/07/02 14:25:02;;;;;;;6.95;6.45;;;33.50;36.10;;;;;;4876360;29;92432;-83
2021/07/02 14:28:29;;;;;;;6.85;6.35;;;33.60;36.40;;;;;;4879196;29;91383;-82
2021/07/02 14:30:55;;;;;;;7.00;6.50;;;33.50;37.10;;;;;;4877610;29;91396;-82
2021/07/02 14:33:22;;;;;;;6.90;6.35;;;33.20;37.00;;;;;;4879443;29;91066;-82
2021/07/02 14:35:50;;;;;;;4.72;4.32;;;33.10;37.20;;;;;;4878356;29;92275;-82
2021/07/02 14:38:16;;;;;;;5.03;4.63;;;33.00;37.60;;;;;;4876084;28;91936;-82
2021/07/02 14:40:42;;;;;;;6.30;5.88;;;32.30;37.30;;;;;;4874239;28;93016;-82
2021/07/02 14:43:08;;;;;;;5.28;4.53;;;32.30;37.70;;;;;;4877635;28;91291;-84
2021/07/02 14:45:33;;;;;;;6.53;6.03;;;31.80;37.40;;;;;;4874638;29;93328;-84
2021/07/02 14:47:59;;;;;;;4.97;4.35;;;32.30;38.20;;;;;;4878253;28;92069;-83
2021/07/02 14:50:25;;;;;;;6.93;6.35;;;32.20;38.10;;;;;;4876995;28;92066;-85
2021/07/02 14:52:51;;;;;;;6.18;5.78;;;;;;;;;;4875996;29;92067;-85
2021/07/02 14:55:17;;;;;;;6.25;5.75;;;31.80;38.60;;;;;;4883387;28;91883;-85
2021/07/02 14:57:43;;;;;;;5.97;5.57;;;;;;;;;;4878074;28;91937;-85
2021/07/02 15:00:09;;;;;;;4.60;4.20;;;31.50;37.30;;;;;;4879176;28;92739;-84
2021/07/02 15:02:35;;;;;;;5.80;5.40;;;31.20;38.90;;;;;;4872162;28;92858;-84
2021/07/02 15:05:01;;;;;;;6.40;5.90;;;30.90;38.20;;;;;;4876108;28;93168;-85
2021/07/02 15:07:27;;;;;;;6.60;6.10;;;31.20;39.80;;;;;;4877132;28;92423;-84
2021/07/02 15:09:56;;;;;;;6.35;5.78;;;30.80;40.30;;;;;;4875614;28;92130;-83
2021/07/02 15:12:23;;;;;;;5.75;5.35;;;30.70;39.60;;;;;;4881629;28;91832;-84
2021/07/02 15:14:49;;;;;;;5.90;5.50;;;30.50;39.20;;;;;;4871805;29;92317;-84
2021/07/02 15:17:15;;;;;;;6.03;5.63;;;30.50;40.00;;;;;;4873040;29;92061;-83
2021/07/02 15:19:41;;;;;;;6.20;5.80;;;29.90;40.20;;;;;;4872733;29;91376;-84
2021/07/02 15:22:06;;;;;;;6.18;5.68;;;30.20;40.80;;;;;;4869629;29;91345;-84
2021/07/02 15:24:32;;;;;;;6.05;5.65;;;30.20;40.60;;;;;;4867764;28;92359;-86
2021/07/02 15:26:58;;;;;;;6.13;5.72;;;30.00;40.80;;;;;;4875338;28;93278;-86
2021/07/02 15:29:24;;;;;;;6.20;5.80;;;30.00;41.20;;;;;;4875207;28;92904;-86
2021/07/02 15:32:34;;;;;;;5.75;5.35;;;29.60;39.90;;;;;;4881831;28;91702;-86
2021/07/02 15:35:00;;;;;;;5.78;5.30;;;29.30;40.80;;;;;;4871243;28;92829;-85
2021/07/02 15:37:26;;;;;;;5.97;5.57;;;29.30;39.70;;;;;;4874350;29;92527;-86
2021/07/02 15:39:51;;;;;;;5.80;5.30;;;29.30;39.80;;;;;;4872153;28;91893;-84
2021/07/02 15:42:18;;;;;;;3.80;3.40;;;29.30;40.20;;;;;;4870082;29;91396;-84
2021/07/02 15:44:45;;;;;;;5.93;5.45;;;28.90;39.50;;;;;;4882413;28;93263;-83
2021/07/02 15:47:10;;;;;;;5.60;5.10;;;28.90;39.40;;;;;;4875997;28;92128;-84
2021/07/02 15:49:36;;;;;;;5.68;5.30;;;28.70;40.50;;;;;;4881348;29;92453;-83
2021/07/02 15:52:03;;;;;;;5.50;5.10;;;28.60;40.80;;;;;;4887769;28;91797;-82